Time;durP1;ratioP1;P1;durP2;ratioP2;P2;SDS_P1;SDS_P2;PMS_P1;PMS_P2;Temp;Humidity;BMP_temperature;BMP_pressure;BME280_temperature;BME280_humidity;BME280_pressure;Samples;Min_cycle;Max_cycle;Signal;HPM_P1;HPM_P2
2023/07/19 00:00:00;;;;;;;1.47;0.90;;;19.20;92.50;;;;;;4938071;29;20523;-80
2023/07/19 00:02:27;;;;;;;1.43;0.90;;;19.20;92.80;;;;;;4940245;28;21036;-81
2023/07/19 00:04:54;;;;;;;1.50;0.90;;;19.20;93.60;;;;;;4939475;29;20483;-79
2023/07/19 00:07:20;;;;;;;1.50;0.90;;;19.10;93.70;;;;;;4941042;28;20485;-81
2023/07/19 00:09:49;;;;;;;1.50;1.00;;;19.10;94.10;;;;;;4942341;28;20509;-80
2023/07/19 00:12:15;;;;;;;1.47;0.90;;;19.10;94.10;;;;;;4939563;28;20562;-79
2023/07/19 00:14:42;;;;;;;1.43;0.90;;;19.00;93.60;;;;;;4942943;28;20559;-82
2023/07/19 00:17:09;;;;;;;1.47;0.90;;;19.00;94.10;;;;;;4939286;28;20475;-81
2023/07/19 00:19:36;;;;;;;1.43;0.90;;;19.00;94.00;;;;;;4945145;28;20455;-81
2023/07/19 00:22:02;;;;;;;1.43;0.90;;;18.90;93.80;;;;;;4932990;28;20496;-79
2023/07/19 00:24:29;;;;;;;1.47;0.90;;;18.90;93.70;;;;;;4939447;29;20498;-81
2023/07/19 00:26:57;;;;;;;1.40;0.90;;;18.90;93.90;;;;;;4939318;28;20563;-81
2023/07/19 00:29:24;;;;;;;1.47;0.90;;;18.80;93.90;;;;;;4947745;28;20495;-80
2023/07/19 00:31:51;;;;;;;1.43;0.90;;;18.80;93.70;;;;;;4939284;28;20485;-80
2023/07/19 00:34:17;;;;;;;1.50;0.90;;;18.80;94.20;;;;;;4942011;28;20484;-79
2023/07/19 00:36:44;;;;;;;1.50;0.90;;;18.80;95.30;;;;;;4937995;28;20486;-82
2023/07/19 00:39:11;;;;;;;1.43;0.90;;;18.70;95.00;;;;;;4948830;28;20960;-82
2023/07/19 00:41:39;;;;;;;1.50;0.90;;;18.60;95.00;;;;;;4939674;28;20849;-81
2023/07/19 00:44:07;;;;;;;1.43;0.90;;;18.60;95.60;;;;;;4949378;28;20483;-79
2023/07/19 00:46:34;;;;;;;1.40;0.90;;;18.50;94.60;;;;;;4937059;28;20482;-81
2023/07/19 00:49:02;;;;;;;1.47;0.90;;;18.50;94.80;;;;;;4949383;28;20523;-82
2023/07/19 00:51:29;;;;;;;1.50;0.90;;;18.50;95.00;;;;;;4932492;28;20491;-81
2023/07/19 00:53:56;;;;;;;1.40;0.90;;;18.50;94.00;;;;;;4943322;29;20490;-79
2023/07/19 00:56:23;;;;;;;1.47;1.00;;;18.50;93.70;;;;;;4935125;28;20474;-82
2023/07/19 00:58:51;;;;;;;1.43;0.90;;;18.50;93.90;;;;;;4951959;28;20478;-79
2023/07/19 01:01:21;;;;;;;1.47;0.90;;;18.50;93.50;;;;;;4930118;28;20479;-82
2023/07/19 01:03:47;;;;;;;1.50;1.00;;;18.50;93.20;;;;;;4940432;29;20914;-80
2023/07/19 01:06:14;;;;;;;1.50;0.93;;;18.50;93.40;;;;;;4932783;28;20471;-79
2023/07/19 01:08:41;;;;;;;1.47;0.90;;;18.50;93.40;;;;;;4951805;28;20468;-81
2023/07/19 01:11:08;;;;;;;1.43;0.90;;;18.50;93.70;;;;;;4933261;28;20475;-81
2023/07/19 01:13:35;;;;;;;1.50;1.00;;;18.50;93.10;;;;;;4946943;29;20492;-81
2023/07/19 01:16:01;;;;;;;1.43;0.90;;;18.40;94.30;;;;;;4932008;28;20464;-81
2023/07/19 01:18:30;;;;;;;1.43;0.90;;;18.40;93.60;;;;;;4953593;28;20460;-80
2023/07/19 01:20:56;;;;;;;1.43;0.90;;;18.40;93.00;;;;;;4928004;28;20468;-79
2023/07/19 01:23:24;;;;;;;1.43;0.90;;;18.40;93.30;;;;;;4952845;28;20491;-80
2023/07/19 01:25:52;;;;;;;1.50;1.00;;;18.40;93.40;;;;;;4930976;28;20479;-79
2023/07/19 01:28:19;;;;;;;1.50;0.90;;;18.40;93.70;;;;;;4950941;28;20499;-79
2023/07/19 01:30:45;;;;;;;1.50;1.00;;;18.30;93.60;;;;;;4945983;28;20868;-80
2023/07/19 01:33:12;;;;;;;1.43;0.90;;;18.30;93.70;;;;;;4914414;29;20484;-81
2023/07/19 01:35:39;;;;;;;1.47;0.90;;;18.30;93.50;;;;;;4940796;29;20490;-78
2023/07/19 01:38:05;;;;;;;1.50;1.00;;;18.30;93.20;;;;;;4945292;28;20490;-83
2023/07/19 01:40:33;;;;;;;1.50;0.90;;;18.30;93.40;;;;;;4941154;29;20971;-82
2023/07/19 01:43:00;;;;;;;1.50;1.00;;;18.30;93.40;;;;;;4932238;28;20501;-83
2023/07/19 01:45:27;;;;;;;1.43;1.00;;;18.20;94.00;;;;;;4940622;29;20463;-82
2023/07/19 01:47:54;;;;;;;1.47;1.00;;;18.20;93.90;;;;;;4946153;28;20490;-82
2023/07/19 01:50:21;;;;;;;1.43;0.90;;;18.20;93.80;;;;;;4942122;29;20488;-82
2023/07/19 01:52:49;;;;;;;1.50;0.90;;;18.10;93.60;;;;;;4943489;28;20509;-83
2023/07/19 01:55:15;;;;;;;1.50;1.00;;;18.10;94.20;;;;;;4931365;29;20542;-79
2023/07/19 01:57:44;;;;;;;1.50;1.00;;;18.10;94.30;;;;;;4943944;28;20563;-81
2023/07/19 02:00:12;;;;;;;1.50;0.90;;;18.10;95.10;;;;;;4938457;28;20467;-81
2023/07/19 02:02:38;;;;;;;1.43;1.00;;;18.00;95.00;;;;;;4944560;28;20479;-81
2023/07/19 02:05:06;;;;;;;1.50;0.90;;;18.00;94.50;;;;;;4944831;28;20867;-82
2023/07/19 02:07:33;;;;;;;1.43;0.90;;;18.00;95.00;;;;;;4941370;28;20545;-83
2023/07/19 02:10:00;;;;;;;1.50;1.00;;;18.00;94.90;;;;;;4938419;28;20983;-80
2023/07/19 02:12:26;;;;;;;1.40;0.90;;;18.00;95.10;;;;;;4942383;28;20487;-80
2023/07/19 02:14:55;;;;;;;1.40;0.90;;;18.00;94.90;;;;;;4944662;28;20491;-83
2023/07/19 02:17:22;;;;;;;1.40;0.90;;;18.00;94.80;;;;;;4936022;28;20826;-82
2023/07/19 02:19:49;;;;;;;1.50;0.90;;;18.00;94.80;;;;;;4937214;28;21317;-79
2023/07/19 02:22:16;;;;;;;1.50;0.90;;;17.90;94.70;;;;;;4942279;28;20516;-81
2023/07/19 02:24:43;;;;;;;1.50;0.90;;;17.90;94.70;;;;;;4940560;28;20527;-83
2023/07/19 02:27:10;;;;;;;1.50;0.90;;;17.90;95.50;;;;;;4932305;28;20479;-79
2023/07/19 02:34:51;;;;;;;1.47;1.00;;;17.80;94.40;;;;;;4828997;26;20485;-87
2023/07/19 02:42:54;;;;;;;1.47;0.90;;;17.80;95.20;;;;;;4946776;23;20481;-88
2023/07/19 02:45:21;;;;;;;1.47;0.90;;;17.80;94.70;;;;;;4938211;28;20562;-88
2023/07/19 02:47:48;;;;;;;1.50;0.90;;;17.90;94.80;;;;;;4953310;28;20494;-85
2023/07/19 02:50:19;;;;;;;1.47;1.00;;;17.90;94.50;;;;;;4954763;28;20562;-85
2023/07/19 02:52:46;;;;;;;1.40;0.90;;;18.00;94.90;;;;;;4916065;28;20933;-86
2023/07/19 02:55:15;;;;;;;1.40;1.00;;;18.00;94.80;;;;;;4923252;29;20551;-86
2023/07/19 02:57:52;;;;;;;1.40;0.97;;;18.10;94.50;;;;;;4922480;28;20484;-88
2023/07/19 03:00:19;;;;;;;1.43;1.00;;;18.10;94.40;;;;;;4924934;29;20708;-87
2023/07/19 03:02:46;;;;;;;1.47;0.90;;;18.20;94.20;;;;;;4923029;28;20500;-86
2023/07/19 03:05:15;;;;;;;1.40;0.90;;;18.20;94.90;;;;;;4927763;29;20504;-85
2023/07/19 03:10:45;;;;;;;1.50;0.90;;;18.30;94.60;;;;;;4924381;29;20495;-85
2023/07/19 03:13:30;;;;;;;1.47;0.90;;;18.30;94.10;;;;;;4918530;29;20551;-88
2023/07/19 03:18:42;;;;;;;1.43;0.90;;;18.40;94.20;;;;;;4923566;29;20459;-88
2023/07/19 03:21:20;;;;;;;1.47;1.00;;;18.40;94.90;;;;;;4917965;28;21080;-87
2023/07/19 03:23:50;;;;;;;1.50;0.93;;;18.40;95.60;;;;;;4935665;29;20471;-86
2023/07/19 03:26:17;;;;;;;1.40;0.90;;;18.40;95.50;;;;;;4917514;28;20703;-85
2023/07/19 03:28:45;;;;;;;1.50;1.00;;;18.40;95.10;;;;;;4930581;29;20469;-86
2023/07/19 03:31:12;;;;;;;1.40;0.90;;;18.40;95.20;;;;;;4916577;28;20499;-85
2023/07/19 03:33:40;;;;;;;1.40;0.90;;;18.40;95.60;;;;;;4928589;29;20826;-88
2023/07/19 03:36:07;;;;;;;1.47;1.00;;;18.40;95.90;;;;;;4917247;28;21494;-88
2023/07/19 03:38:34;;;;;;;1.47;0.90;;;18.30;96.00;;;;;;4929487;29;21008;-85
2023/07/19 03:41:11;;;;;;;1.47;0.90;;;18.30;96.10;;;;;;4919627;28;21041;-86
2023/07/19 03:43:39;;;;;;;1.43;0.93;;;18.30;96.40;;;;;;4929004;29;20472;-86
2023/07/19 03:46:10;;;;;;;1.43;0.90;;;18.30;96.30;;;;;;4918737;28;20476;-85
2023/07/19 03:48:40;;;;;;;1.43;0.90;;;18.30;96.20;;;;;;4936666;28;20531;-86
2023/07/19 03:51:17;;;;;;;1.43;0.90;;;18.30;96.60;;;;;;4919953;28;20636;-88
2023/07/19 03:53:44;;;;;;;1.50;1.00;;;18.30;96.40;;;;;;4925634;29;20468;-86
2023/07/19 03:56:21;;;;;;;1.40;0.90;;;18.30;96.90;;;;;;4919389;28;21005;-86
2023/07/19 03:58:58;;;;;;;1.47;0.90;;;18.30;97.00;;;;;;4928050;29;20464;-89
2023/07/19 04:01:30;;;;;;;1.40;1.00;;;18.30;98.20;;;;;;4922740;28;21076;-86
2023/07/19 04:04:11;;;;;;;1.50;0.90;;;18.30;97.90;;;;;;4935560;28;20467;-86
2023/07/19 04:06:58;;;;;;;1.50;0.90;;;18.40;97.30;;;;;;4922036;28;20487;-86
2023/07/19 04:09:30;;;;;;;1.50;0.90;;;18.40;97.90;;;;;;4924313;28;20483;-88
2023/07/19 04:12:33;;;;;;;1.50;0.90;;;18.40;97.50;;;;;;4930068;28;20511;-86
2023/07/19 04:15:00;;;;;;;1.40;0.93;;;18.40;96.80;;;;;;4904293;29;20766;-87
2023/07/19 04:17:27;;;;;;;1.40;0.90;;;18.40;97.30;;;;;;4914245;28;20563;-86
2023/07/19 04:19:54;;;;;;;1.50;0.90;;;18.40;97.10;;;;;;4923523;29;20928;-86
2023/07/19 04:25:35;;;;;;;1.43;0.90;;;18.50;96.70;;;;;;4904360;29;20819;-85
2023/07/19 04:28:04;;;;;;;1.40;0.90;;;18.50;96.50;;;;;;4930066;28;20491;-85
2023/07/19 04:30:31;;;;;;;1.50;0.90;;;18.50;96.60;;;;;;4919934;29;20559;-85
2023/07/19 04:33:00;;;;;;;1.47;0.90;;;18.60;95.90;;;;;;4923712;28;20494;-88
2023/07/19 04:35:50;;;;;;;1.40;0.90;;;18.60;96.10;;;;;;4929989;29;20474;-85
2023/07/19 04:38:19;;;;;;;1.47;0.90;;;18.70;95.90;;;;;;4930830;29;20486;-85
2023/07/19 04:41:40;;;;;;;1.47;0.97;;;18.70;96.00;;;;;;4929576;28;21003;-87
2023/07/19 04:44:09;;;;;;;1.47;0.90;;;18.70;95.80;;;;;;4907435;29;20543;-86
2023/07/19 04:46:43;;;;;;;1.40;0.90;;;18.80;95.90;;;;;;4917126;28;20472;-85
2023/07/19 04:49:11;;;;;;;1.50;1.00;;;18.80;95.40;;;;;;4927773;28;20472;-85
2023/07/19 04:51:41;;;;;;;1.40;0.90;;;18.80;95.60;;;;;;4914585;28;20503;-85
2023/07/19 04:54:08;;;;;;;1.43;0.90;;;18.80;95.90;;;;;;4927912;28;20962;-84
2023/07/19 04:56:47;;;;;;;1.50;1.00;;;18.80;96.10;;;;;;4916250;28;20938;-84
2023/07/19 04:59:16;;;;;;;1.43;0.90;;;18.80;95.90;;;;;;4929051;29;20466;-84
2023/07/19 05:01:46;;;;;;;1.47;0.90;;;18.90;96.10;;;;;;4923482;28;20538;-84
2023/07/19 05:04:13;;;;;;;1.40;0.90;;;19.00;96.20;;;;;;4935381;28;20482;-84
2023/07/19 05:06:42;;;;;;;1.47;0.90;;;19.00;96.20;;;;;;4926872;28;20497;-83
2023/07/19 05:09:20;;;;;;;1.50;0.90;;;19.10;95.90;;;;;;4940211;28;20491;-84
2023/07/19 05:11:47;;;;;;;1.70;1.20;;;19.10;94.80;;;;;;4926139;28;20514;-86
2023/07/19 05:14:17;;;;;;;1.50;0.90;;;19.20;95.10;;;;;;4936542;28;20599;-84
2023/07/19 05:16:47;;;;;;;1.50;0.90;;;19.30;95.00;;;;;;4922712;28;21008;-84
2023/07/19 05:19:14;;;;;;;1.50;0.90;;;19.30;94.50;;;;;;4931833;28;20527;-84
2023/07/19 05:21:50;;;;;;;1.43;0.90;;;19.40;93.80;;;;;;4923988;28;20525;-84
2023/07/19 05:24:17;;;;;;;1.50;0.90;;;19.40;93.70;;;;;;4932968;28;20570;-84
2023/07/19 05:26:44;;;;;;;1.47;0.90;;;19.40;94.10;;;;;;4914817;28;20503;-87
2023/07/19 05:29:11;;;;;;;1.43;0.90;;;19.40;93.70;;;;;;4931791;29;20467;-84
2023/07/19 05:31:42;;;;;;;1.50;0.90;;;19.40;93.70;;;;;;4925637;28;20518;-85
2023/07/19 05:34:09;;;;;;;1.40;0.90;;;19.40;93.90;;;;;;4954388;23;20667;-80
2023/07/19 05:36:37;;;;;;;2.90;2.70;;;19.40;94.30;;;;;;4953542;28;20478;-79
2023/07/19 05:39:05;;;;;;;1.47;0.90;;;19.40;94.20;;;;;;4960988;28;21399;-80
2023/07/19 05:41:32;;;;;;;1.40;0.90;;;19.40;94.00;;;;;;4954671;28;20478;-79
2023/07/19 05:43:58;;;;;;;1.43;0.90;;;19.50;94.30;;;;;;4968977;28;20795;-80
2023/07/19 05:46:25;;;;;;;1.47;0.90;;;19.60;94.30;;;;;;4946765;28;20635;-81
2023/07/19 05:48:53;;;;;;;1.47;0.90;;;19.70;93.60;;;;;;4964400;28;20752;-82
2023/07/19 05:51:20;;;;;;;1.50;0.90;;;19.80;93.00;;;;;;4949690;28;20844;-82
2023/07/19 05:53:47;;;;;;;1.50;0.90;;;19.80;92.60;;;;;;4961295;28;20491;-80
2023/07/19 05:56:13;;;;;;;1.43;0.90;;;19.90;92.80;;;;;;4943762;28;20477;-80
2023/07/19 05:58:40;;;;;;;1.47;0.90;;;20.00;92.30;;;;;;4969619;28;20564;-80
2023/07/19 06:01:09;;;;;;;1.40;0.90;;;20.10;92.00;;;;;;4951818;28;20484;-81
2023/07/19 06:03:36;;;;;;;1.50;1.00;;;20.20;91.70;;;;;;4968397;28;20484;-81
2023/07/19 06:06:06;;;;;;;1.40;0.90;;;20.20;92.00;;;;;;4947970;28;20466;-80
2023/07/19 06:08:33;;;;;;;1.50;0.90;;;20.30;91.90;;;;;;4957682;28;20463;-82
2023/07/19 06:11:00;;;;;;;1.47;0.90;;;20.30;91.50;;;;;;4948813;28;20481;-80
2023/07/19 06:13:27;;;;;;;1.40;0.90;;;20.40;91.60;;;;;;4969027;28;20794;-80
2023/07/19 06:15:54;;;;;;;1.50;0.90;;;20.40;91.60;;;;;;4949564;28;20474;-82
2023/07/19 06:18:20;;;;;;;1.47;0.90;;;20.40;91.40;;;;;;4970162;28;20462;-80
2023/07/19 06:20:47;;;;;;;1.47;0.90;;;20.40;91.70;;;;;;4946403;28;20458;-80
2023/07/19 06:23:15;;;;;;;1.47;0.90;;;20.40;91.70;;;;;;4970325;28;20826;-82
2023/07/19 06:25:43;;;;;;;1.43;0.90;;;20.40;92.30;;;;;;4954963;28;20490;-79
2023/07/19 06:28:09;;;;;;;1.43;0.90;;;20.40;92.20;;;;;;4942518;28;20579;-81
2023/07/19 06:30:36;;;;;;;1.43;0.90;;;20.40;92.10;;;;;;4954623;28;20464;-80
2023/07/19 06:33:03;;;;;;;1.50;1.30;;;20.40;91.80;;;;;;4952753;28;20964;-80
2023/07/19 06:35:30;;;;;;;1.47;0.90;;;20.50;92.60;;;;;;4955925;28;20505;-82
2023/07/19 06:37:56;;;;;;;1.47;0.90;;;20.50;92.10;;;;;;4961971;28;20492;-83
2023/07/19 06:40:26;;;;;;;1.43;0.87;;;20.60;91.50;;;;;;4954621;28;20475;-81
2023/07/19 06:42:53;;;;;;;1.43;0.87;;;20.60;91.30;;;;;;4951607;28;20482;-80
2023/07/19 06:45:20;;;;;;;1.50;0.90;;;20.70;91.30;;;;;;4953628;28;20491;-80
2023/07/19 06:47:46;;;;;;;1.43;0.90;;;20.70;91.30;;;;;;4952593;28;20574;-79
2023/07/19 06:50:13;;;;;;;1.47;0.90;;;20.80;91.30;;;;;;4956003;28;20463;-79
2023/07/19 06:52:42;;;;;;;1.47;0.90;;;20.90;91.30;;;;;;4954925;28;20486;-78
2023/07/19 06:55:13;;;;;;;1.50;0.90;;;20.90;91.10;;;;;;4957634;28;20490;-79
2023/07/19 06:57:54;;;;;;;1.47;0.90;;;21.00;90.50;;;;;;4954749;28;20528;-79
2023/07/19 07:00:29;;;;;;;1.47;0.80;;;21.00;90.70;;;;;;4955767;28;20470;-78
2023/07/19 07:03:00;;;;;;;1.50;0.90;;;21.10;90.70;;;;;;4954822;28;20858;-81
2023/07/19 07:05:44;;;;;;;1.50;0.90;;;21.10;90.00;;;;;;4951255;28;20487;-79
2023/07/19 07:08:12;;;;;;;1.47;0.90;;;21.20;90.30;;;;;;4939640;28;20554;-80
2023/07/19 07:10:43;;;;;;;1.47;0.90;;;21.30;90.80;;;;;;4955404;28;20473;-80
2023/07/19 07:13:15;;;;;;;1.47;0.90;;;21.30;90.80;;;;;;4961156;28;20577;-80
2023/07/19 07:15:46;;;;;;;1.43;0.90;;;21.40;90.90;;;;;;4957134;28;20471;-79
2023/07/19 07:18:14;;;;;;;1.50;0.90;;;21.50;90.60;;;;;;4940931;28;20468;-81
2023/07/19 07:20:41;;;;;;;1.50;0.90;;;21.50;90.40;;;;;;4954835;28;20467;-81
2023/07/19 07:23:12;;;;;;;1.40;0.80;;;21.50;90.70;;;;;;4957596;28;20494;-79
2023/07/19 07:25:41;;;;;;;1.47;0.90;;;21.50;92.30;;;;;;4956614;28;20474;-79
2023/07/19 07:28:11;;;;;;;1.43;0.90;;;21.50;92.60;;;;;;4958837;28;20767;-78
2023/07/19 07:30:40;;;;;;;1.43;0.90;;;21.60;93.70;;;;;;4956819;28;20463;-80
2023/07/19 07:33:09;;;;;;;1.47;0.90;;;21.50;93.30;;;;;;4961719;28;20483;-78
2023/07/19 07:35:37;;;;;;;1.43;0.90;;;21.50;93.50;;;;;;4957621;28;20518;-78
2023/07/19 07:38:05;;;;;;;1.50;0.90;;;21.50;93.50;;;;;;4959979;28;20489;-80
2023/07/19 07:40:36;;;;;;;1.47;0.90;;;21.50;93.90;;;;;;4958051;28;20470;-80
2023/07/19 07:45:36;;;;;;;1.47;0.90;;;21.70;93.70;;;;;;5389923;23;20499;-78
2023/07/19 07:48:09;;;;;;;1.47;0.87;;;21.80;93.30;;;;;;4943764;28;20487;-81
2023/07/19 07:50:37;;;;;;;1.50;0.90;;;21.80;93.30;;;;;;4936387;29;20463;-79
2023/07/19 07:53:04;;;;;;;1.50;0.90;;;21.90;92.10;;;;;;4936127;28;20520;-81
2023/07/19 07:55:31;;;;;;;1.50;0.90;;;21.90;91.40;;;;;;4918321;29;20481;-81
2023/07/19 07:57:59;;;;;;;1.47;0.90;;;22.00;91.10;;;;;;4913883;29;21178;-82
2023/07/19 08:00:30;;;;;;;1.43;0.90;;;22.00;91.40;;;;;;4917824;29;20591;-80
2023/07/19 08:02:58;;;;;;;1.50;0.90;;;22.10;91.40;;;;;;4921149;29;20491;-79
2023/07/19 08:05:29;;;;;;;1.50;0.90;;;22.10;91.20;;;;;;4918119;29;20599;-81
2023/07/19 08:07:57;;;;;;;1.47;0.90;;;22.00;91.50;;;;;;4914574;29;20524;-81
2023/07/19 08:10:25;;;;;;;1.47;0.83;;;22.00;90.80;;;;;;4919993;29;20551;-80
2023/07/19 08:12:53;;;;;;;1.50;0.90;;;22.10;91.50;;;;;;4918603;29;20485;-80
2023/07/19 08:15:23;;;;;;;1.43;0.90;;;22.20;92.30;;;;;;4918129;29;20500;-81
2023/07/19 08:17:52;;;;;;;1.50;0.90;;;22.30;91.80;;;;;;4913877;29;20590;-79
2023/07/19 08:20:20;;;;;;;1.47;0.83;;;22.40;91.10;;;;;;4918252;29;20475;-83
2023/07/19 08:22:53;;;;;;;1.50;0.90;;;22.50;90.20;;;;;;4920719;29;20487;-79
2023/07/19 08:25:21;;;;;;;1.40;0.90;;;22.50;90.50;;;;;;4915335;29;20496;-82
2023/07/19 08:27:50;;;;;;;1.40;0.90;;;22.50;90.90;;;;;;4915983;29;20643;-82
2023/07/19 08:30:24;;;;;;;1.50;1.00;;;22.50;90.40;;;;;;4913540;29;20477;-78
2023/07/19 08:32:51;;;;;;;1.47;0.90;;;22.50;90.00;;;;;;4916659;29;20860;-81
2023/07/19 08:35:19;;;;;;;1.47;0.90;;;22.50;89.90;;;;;;4917341;29;20497;-81
2023/07/19 08:37:47;;;;;;;1.43;0.90;;;22.40;90.90;;;;;;4920995;29;20575;-80
2023/07/19 08:40:17;;;;;;;1.43;0.90;;;22.40;91.30;;;;;;4913960;29;20906;-77
2023/07/19 08:42:46;;;;;;;1.43;0.87;;;22.40;92.90;;;;;;4917331;29;20483;-77
2023/07/19 08:45:14;;;;;;;1.47;0.87;;;22.30;94.30;;;;;;4913868;29;20496;-79
2023/07/19 08:47:43;;;;;;;1.50;0.90;;;22.40;95.00;;;;;;4913514;29;20487;-79
2023/07/19 08:50:12;;;;;;;2.30;1.37;;;22.40;95.60;;;;;;4918654;29;20540;-78
2023/07/19 08:52:42;;;;;;;1.43;0.90;;;22.70;95.30;;;;;;4920806;29;20860;-80
2023/07/19 08:55:10;;;;;;;1.47;0.90;;;22.90;93.60;;;;;;4911423;29;20483;-79
2023/07/19 08:57:45;;;;;;;1.47;0.90;;;23.00;93.40;;;;;;4916283;29;20564;-80
2023/07/19 09:00:33;;;;;;;;;;;;;;;;;;;;;
2023/07/19 09:03:03;;;;;;;1.47;0.90;;;23.40;91.00;;;;;;4921572;28;20959;-80
2023/07/19 09:05:32;;;;;;;1.50;0.90;;;23.70;90.60;;;;;;4906943;29;20477;-81
2023/07/19 09:08:02;;;;;;;1.47;0.90;;;23.90;88.60;;;;;;4909139;29;21347;-82
2023/07/19 09:10:30;;;;;;;1.50;0.90;;;24.00;88.10;;;;;;4911553;29;20503;-81
2023/07/19 09:13:00;;;;;;;1.50;0.90;;;24.00;87.20;;;;;;4913503;29;20495;-80
2023/07/19 09:15:28;;;;;;;1.43;0.90;;;24.10;86.30;;;;;;4903295;29;20563;-81
2023/07/19 09:17:59;;;;;;;1.50;0.80;;;24.20;86.50;;;;;;4912294;29;20571;-82
2023/07/19 09:20:31;;;;;;;1.50;0.90;;;24.50;86.80;;;;;;4908264;29;21074;-81
2023/07/19 09:23:06;;;;;;;1.47;0.83;;;24.70;84.90;;;;;;4908153;29;20498;-82
2023/07/19 09:25:33;;;;;;;1.50;0.87;;;24.70;82.60;;;;;;4906740;29;20559;-81
2023/07/19 09:28:11;;;;;;;1.40;0.87;;;24.60;83.80;;;;;;4913567;29;20582;-80
2023/07/19 09:30:58;;;;;;;1.47;0.90;;;24.50;83.70;;;;;;4909356;29;20484;-83
2023/07/19 09:33:27;;;;;;;1.50;0.80;;;24.50;82.80;;;;;;4892881;29;20495;-81
2023/07/19 09:36:08;;;;;;;2.90;1.60;;;24.60;84.10;;;;;;4901083;29;20476;-82
2023/07/19 09:38:42;;;;;;;1.50;0.90;;;24.60;83.60;;;;;;4916642;29;20703;-82
2023/07/19 09:41:25;;;;;;;1.50;0.90;;;24.70;83.10;;;;;;4900279;29;21144;-82
2023/07/19 09:43:59;;;;;;;1.47;0.90;;;24.70;82.50;;;;;;4915017;29;20520;-80
2023/07/19 09:46:33;;;;;;;1.50;0.90;;;24.90;83.30;;;;;;4901990;29;20482;-82
2023/07/19 09:49:04;;;;;;;1.50;0.83;;;25.10;82.50;;;;;;4918257;29;20861;-82
2023/07/19 09:51:45;;;;;;;1.47;0.80;;;25.40;82.60;;;;;;4908003;29;20574;-83
2023/07/19 09:54:20;;;;;;;1.40;0.80;;;25.70;82.60;;;;;;4910928;29;20511;-83
2023/07/19 09:56:49;;;;;;;1.50;0.87;;;26.10;80.80;;;;;;4902928;29;20490;-83
2023/07/19 10:02:31;;;;;;;1.50;0.90;;;26.30;79.80;;;;;;4889959;29;20648;-83
2023/07/19 10:05:08;;;;;;;1.47;0.80;;;26.30;80.00;;;;;;4902207;29;20488;-83
2023/07/19 10:07:37;;;;;;;1.47;0.90;;;26.10;80.40;;;;;;4906403;29;20770;-81
2023/07/19 10:10:05;;;;;;;1.40;0.80;;;26.10;80.50;;;;;;4904370;29;20554;-82
2023/07/19 10:12:37;;;;;;;1.43;0.80;;;26.30;80.20;;;;;;4906840;29;20483;-82
2023/07/19 10:15:07;;;;;;;1.50;0.87;;;26.50;79.90;;;;;;4907404;29;20566;-80
2023/07/19 10:17:40;;;;;;;1.40;0.80;;;26.60;79.10;;;;;;4906205;29;20483;-81
2023/07/19 10:20:09;;;;;;;1.47;0.90;;;26.90;78.90;;;;;;4905762;29;20606;-82
2023/07/19 10:23:06;;;;;;;;;;;;;;;;;;;;;
2023/07/19 10:25:35;;;;;;;1.47;0.80;;;27.50;76.90;;;;;;4903167;29;20475;-82
2023/07/19 10:28:04;;;;;;;1.47;0.80;;;27.70;74.10;;;;;;4905615;29;20491;-82
2023/07/19 10:30:51;;;;;;;1.50;0.80;;;27.80;74.10;;;;;;4904827;29;20468;-83
2023/07/19 10:33:20;;;;;;;1.47;0.80;;;27.80;73.30;;;;;;4893997;29;20916;-82
2023/07/19 10:35:49;;;;;;;1.43;0.80;;;27.90;73.10;;;;;;4909019;29;20625;-82
2023/07/19 10:38:18;;;;;;;1.47;0.80;;;27.80;72.90;;;;;;4920564;29;20481;-82
2023/07/19 10:40:47;;;;;;;1.70;1.23;;;27.70;72.90;;;;;;4906642;29;20468;-82
2023/07/19 10:43:15;;;;;;;1.43;0.90;;;27.80;72.20;;;;;;4896737;29;20477;-83
2023/07/19 10:45:44;;;;;;;1.47;0.80;;;28.00;72.00;;;;;;4909088;29;20540;-83
2023/07/19 10:48:13;;;;;;;1.50;0.80;;;28.30;73.50;;;;;;4911758;29;20602;-81
2023/07/19 10:50:44;;;;;;;1.47;0.80;;;28.60;72.10;;;;;;4914051;29;20475;-83
2023/07/19 10:53:11;;;;;;;1.43;0.80;;;29.00;71.60;;;;;;4913436;29;20494;-80
2023/07/19 10:55:38;;;;;;;1.47;0.80;;;29.30;70.40;;;;;;4909656;29;20483;-83
2023/07/19 10:58:07;;;;;;;1.43;0.80;;;29.30;70.20;;;;;;4909523;29;20501;-85
2023/07/19 11:00:37;;;;;;;1.47;0.80;;;29.20;68.60;;;;;;4910377;29;20965;-83
2023/07/19 11:03:07;;;;;;;1.47;0.80;;;29.00;69.10;;;;;;4909572;29;20483;-83
2023/07/19 11:05:54;;;;;;;1.43;0.80;;;28.80;70.90;;;;;;4908117;29;20468;-82
2023/07/19 11:09:02;;;;;;;1.43;0.80;;;28.80;70.10;;;;;;4900860;29;20465;-83
2023/07/19 11:11:29;;;;;;;1.43;0.80;;;28.60;69.40;;;;;;4912000;29;20474;-82
2023/07/19 11:13:56;;;;;;;1.40;0.80;;;28.70;69.90;;;;;;4908687;29;20558;-82
2023/07/19 11:16:27;;;;;;;1.43;0.80;;;28.90;69.20;;;;;;4901505;29;20575;-82
2023/07/19 11:18:54;;;;;;;1.50;0.80;;;29.20;69.50;;;;;;4917659;29;20468;-83
2023/07/19 11:21:29;;;;;;;1.47;0.80;;;29.40;68.80;;;;;;4901408;29;20486;-83
2023/07/19 11:23:56;;;;;;;1.43;0.80;;;29.80;67.20;;;;;;4917049;29;20550;-81
2023/07/19 11:26:23;;;;;;;1.47;0.80;;;29.90;67.40;;;;;;4894385;29;20582;-81
2023/07/19 11:28:54;;;;;;;1.47;0.80;;;30.10;65.50;;;;;;4915540;29;20472;-81
2023/07/19 11:31:32;;;;;;;1.40;0.80;;;30.10;66.30;;;;;;4901513;29;20531;-84
2023/07/19 11:34:24;;;;;;;1.50;0.80;;;30.00;67.00;;;;;;4953102;23;20304;-82
2023/07/19 11:36:52;;;;;;;1.47;0.80;;;30.20;67.30;;;;;;4935135;28;20554;-83
2023/07/19 11:39:44;;;;;;;1.43;0.80;;;30.40;67.80;;;;;;4949214;28;20211;-84
2023/07/19 11:42:11;;;;;;;1.43;0.80;;;30.80;65.40;;;;;;4944754;28;20229;-83
2023/07/19 11:44:44;;;;;;;1.43;0.80;;;30.90;65.60;;;;;;4932555;28;20283;-83
2023/07/19 11:47:12;;;;;;;1.43;0.80;;;31.10;66.10;;;;;;4921125;28;20808;-83
2023/07/19 11:49:39;;;;;;;1.50;0.80;;;31.20;64.90;;;;;;4929548;28;20299;-83
2023/07/19 11:55:00;;;;;;;1.47;0.80;;;31.00;65.60;;;;;;4928150;28;20238;-83
2023/07/19 11:57:27;;;;;;;1.50;0.80;;;31.10;66.10;;;;;;4927401;28;20807;-83
2023/07/19 11:59:54;;;;;;;1.47;0.80;;;31.30;64.60;;;;;;4930430;28;20273;-83
2023/07/19 12:02:22;;;;;;;1.43;0.80;;;31.50;64.10;;;;;;4929126;28;20268;-82
2023/07/19 12:04:49;;;;;;;1.43;0.80;;;31.60;62.80;;;;;;4929139;28;20247;-82
2023/07/19 12:07:18;;;;;;;1.47;0.80;;;31.60;63.80;;;;;;4924969;28;20226;-82
2023/07/19 12:09:45;;;;;;;1.43;0.80;;;31.50;63.50;;;;;;4931179;28;20599;-81
2023/07/19 12:12:12;;;;;;;1.43;0.80;;;31.60;65.40;;;;;;4926056;28;20231;-80
2023/07/19 12:14:39;;;;;;;1.40;0.80;;;31.40;63.70;;;;;;4931861;28;20270;-81
2023/07/19 12:17:06;;;;;;;1.43;0.80;;;31.20;64.70;;;;;;4925378;28;20226;-81
2023/07/19 12:19:34;;;;;;;1.40;0.80;;;31.10;64.50;;;;;;4934032;28;20211;-83
2023/07/19 12:22:04;;;;;;;1.43;0.80;;;31.10;64.10;;;;;;4933481;28;20239;-83
2023/07/19 12:24:32;;;;;;;1.43;0.80;;;31.00;64.80;;;;;;4935818;28;20273;-81
2023/07/19 12:26:59;;;;;;;1.50;0.90;;;30.80;63.90;;;;;;4926689;28;20235;-80
2023/07/19 12:29:26;;;;;;;1.43;0.80;;;30.40;63.80;;;;;;4935109;28;20218;-81
2023/07/19 12:31:53;;;;;;;1.43;0.80;;;30.00;65.30;;;;;;4926269;28;20230;-83
2023/07/19 12:34:21;;;;;;;1.47;0.80;;;29.80;66.40;;;;;;4934115;28;20398;-81
2023/07/19 12:36:50;;;;;;;1.50;0.80;;;29.50;65.60;;;;;;4918771;28;20790;-83
2023/07/19 12:39:17;;;;;;;1.50;0.90;;;29.30;66.20;;;;;;4932614;28;20240;-80
2023/07/19 12:41:46;;;;;;;1.43;0.80;;;29.30;66.60;;;;;;4924962;28;20501;-80
2023/07/19 12:44:13;;;;;;;1.43;0.80;;;29.60;65.70;;;;;;4932926;28;20487;-81
2023/07/19 12:46:40;;;;;;;1.50;0.90;;;29.60;65.70;;;;;;4922743;28;21148;-81
2023/07/19 12:49:07;;;;;;;1.40;0.80;;;29.60;65.60;;;;;;4931399;28;20744;-80
2023/07/19 12:51:35;;;;;;;1.47;0.80;;;29.70;65.20;;;;;;4921037;28;20871;-80
2023/07/19 12:54:02;;;;;;;1.40;0.80;;;30.00;65.10;;;;;;4931463;28;20957;-81
2023/07/19 12:56:29;;;;;;;1.43;0.80;;;30.10;65.20;;;;;;4920676;28;21018;-83
2023/07/19 12:58:57;;;;;;;1.43;0.80;;;30.20;65.20;;;;;;4934123;28;20530;-82
2023/07/19 13:01:25;;;;;;;1.47;0.80;;;30.40;64.80;;;;;;4929973;28;20541;-82
2023/07/19 13:03:52;;;;;;;1.47;0.80;;;30.50;64.30;;;;;;4934882;28;20623;-79
2023/07/19 13:06:20;;;;;;;1.50;0.90;;;30.80;64.00;;;;;;4919056;28;20562;-83
2023/07/19 13:08:48;;;;;;;1.47;0.80;;;31.10;63.70;;;;;;4937932;28;20196;-82
2023/07/19 13:11:16;;;;;;;1.40;0.80;;;31.10;61.80;;;;;;4918120;28;20693;-83
2023/07/19 13:13:44;;;;;;;1.43;0.80;;;31.00;62.70;;;;;;4936000;28;20239;-82
2023/07/19 13:16:12;;;;;;;1.50;0.80;;;30.80;62.50;;;;;;4916312;28;20239;-82
2023/07/19 13:18:40;;;;;;;1.40;0.80;;;30.50;63.00;;;;;;4923216;29;20211;-82
2023/07/19 13:21:07;;;;;;;1.40;0.80;;;30.30;63.60;;;;;;4921993;28;20525;-81
2023/07/19 13:23:34;;;;;;;1.40;0.90;;;30.10;64.00;;;;;;4936860;28;20494;-83
2023/07/19 13:26:02;;;;;;;1.43;0.80;;;29.70;65.00;;;;;;4919176;28;20475;-82
2023/07/19 13:28:29;;;;;;;1.40;0.80;;;29.50;65.00;;;;;;4939285;28;20505;-82